Time;durP1;ratioP1;P1;durP2;ratioP2;P2;SDS_P1;SDS_P2;PMS_P1;PMS_P2;Temp;Humidity;BMP_temperature;BMP_pressure;BME280_temperature;BME280_humidity;BME280_pressure;Samples;Min_cycle;Max_cycle;Signal;HPM_P1;HPM_P2
2023/12/05 00:00:29;;;;;;;12.60;6.85;;;0.80;99.90;;;;;;5068150;28;20098;-80
2023/12/05 00:02:55;;;;;;;13.30;7.03;;;2.10;99.90;;;;;;5054668;28;20082;-79
2023/12/05 00:05:21;;;;;;;13.05;6.60;;;2.50;99.90;;;;;;5034781;28;20032;-80
2023/12/05 00:07:46;;;;;;;13.38;6.68;;;0.50;99.90;;;;;;5049010;28;20016;-80
2023/12/05 00:10:12;;;;;;;13.93;7.05;;;0.50;99.90;;;;;;5049199;28;20024;-80
2023/12/05 00:12:38;;;;;;;13.07;6.75;;;0.50;99.90;;;;;;5065501;28;20066;-79
2023/12/05 00:15:04;;;;;;;12.40;6.65;;;2.10;99.90;;;;;;5064419;28;20021;-80
2023/12/05 00:17:30;;;;;;;13.75;6.65;;;0.50;99.90;;;;;;5065988;28;20479;-80
2023/12/05 00:19:57;;;;;;;11.88;6.55;;;0.50;99.90;;;;;;5032759;28;20097;-80
2023/12/05 00:22:26;;;;;;;12.85;6.55;;;1.70;99.90;;;;;;5065237;28;20028;-80
2023/12/05 00:24:52;;;;;;;13.43;6.88;;;1.00;99.90;;;;;;5081238;28;20087;-80
2023/12/05 00:27:18;;;;;;;13.88;6.28;;;0.40;99.90;;;;;;5050050;28;20138;-80
2023/12/05 00:29:44;;;;;;;13.52;7.00;;;0.40;99.90;;;;;;5049078;28;20043;-80
2023/12/05 00:32:10;;;;;;;13.20;7.13;;;0.40;99.90;;;;;;5089035;28;20035;-80
2023/12/05 00:34:36;;;;;;;12.10;6.72;;;0.40;99.90;;;;;;5048154;28;20174;-80
2023/12/05 00:37:03;;;;;;;13.38;6.85;;;0.40;99.90;;;;;;5033905;28;20040;-80
2023/12/05 00:39:28;;;;;;;14.05;7.43;;;0.40;99.90;;;;;;5074794;28;20106;-80
2023/12/05 00:41:54;;;;;;;13.15;6.60;;;1.70;99.90;;;;;;5050583;28;20012;-80
2023/12/05 00:44:20;;;;;;;12.77;6.78;;;0.90;99.90;;;;;;5045172;28;20025;-79
2023/12/05 00:46:46;;;;;;;14.98;7.57;;;1.80;99.90;;;;;;5065399;28;20043;-80
2023/12/05 00:49:12;;;;;;;13.63;6.88;;;0.40;99.90;;;;;;5066791;28;20387;-80
2023/12/05 00:51:37;;;;;;;13.32;7.47;;;2.00;99.90;;;;;;5048249;28;20369;-79
2023/12/05 00:54:04;;;;;;;13.68;7.10;;;1.90;99.90;;;;;;5048534;28;20035;-80
2023/12/05 00:56:29;;;;;;;13.35;6.88;;;0.60;99.90;;;;;;5074934;28;20084;-79
2023/12/05 00:58:55;;;;;;;13.00;7.32;;;0.40;99.90;;;;;;5048367;28;20135;-80
2023/12/05 01:01:21;;;;;;;14.75;7.78;;;1.40;99.90;;;;;;5064758;28;20024;-79
2023/12/05 01:03:47;;;;;;;14.63;8.43;;;0.30;99.90;;;;;;5065235;28;20028;-79
2023/12/05 01:06:12;;;;;;;14.13;7.65;;;0.30;99.90;;;;;;5081636;28;20027;-80
2023/12/05 01:08:39;;;;;;;13.60;7.47;;;1.80;99.90;;;;;;5086782;28;20020;-79
2023/12/05 01:11:05;;;;;;;13.65;7.50;;;0.50;99.90;;;;;;5050946;28;20271;-79
2023/12/05 01:13:30;;;;;;;13.90;7.65;;;0.40;99.90;;;;;;5048098;28;20024;-80
2023/12/05 01:15:56;;;;;;;13.68;7.18;;;1.10;99.90;;;;;;5048256;28;20031;-80
2023/12/05 01:18:22;;;;;;;13.95;7.28;;;1.80;99.90;;;;;;5029638;28;20059;-80
2023/12/05 01:20:48;;;;;;;16.23;8.50;;;2.00;99.90;;;;;;5069779;28;20028;-80
2023/12/05 01:23:13;;;;;;;13.95;7.25;;;1.40;99.90;;;;;;5087243;28;20043;-80
2023/12/05 01:25:39;;;;;;;14.32;7.68;;;1.60;99.90;;;;;;5067365;28;20047;-80
2023/12/05 01:28:05;;;;;;;14.65;7.22;;;2.30;99.90;;;;;;5031964;28;20028;-79
2023/12/05 01:30:30;;;;;;;15.05;8.25;;;0.30;99.90;;;;;;5066032;28;20035;-80
2023/12/05 01:32:56;;;;;;;14.05;7.72;;;0.30;99.90;;;;;;5053049;28;20028;-80
2023/12/05 01:35:22;;;;;;;13.80;7.97;;;2.00;99.90;;;;;;5063670;28;20024;-80
2023/12/05 01:37:48;;;;;;;14.52;7.63;;;2.30;99.90;;;;;;5048352;28;20019;-80
2023/12/05 01:40:14;;;;;;;13.30;7.68;;;1.30;99.90;;;;;;5063688;28;20301;-79
2023/12/05 01:42:40;;;;;;;14.10;7.88;;;2.40;99.90;;;;;;5047903;28;20020;-80
2023/12/05 01:45:07;;;;;;;15.48;8.27;;;2.10;99.90;;;;;;5082789;28;20083;-80
2023/12/05 01:47:39;;;;;;;15.95;8.40;;;0.30;99.90;;;;;;5039356;28;20044;-80
2023/12/05 01:50:10;;;;;;;13.20;7.47;;;0.30;99.90;;;;;;5067882;28;20423;-80
2023/12/05 01:52:39;;;;;;;13.93;7.18;;;0.30;99.90;;;;;;5105837;28;20271;-80
2023/12/05 01:55:08;;;;;;;14.38;7.82;;;0.30;99.90;;;;;;5069171;28;20078;-80
2023/12/05 01:57:35;;;;;;;14.52;8.15;;;0.30;99.90;;;;;;5079068;28;20036;-80
2023/12/05 02:00:01;;;;;;;14.23;7.78;;;0.30;99.90;;;;;;5052106;28;20027;-80
2023/12/05 02:02:27;;;;;;;14.05;8.02;;;0.70;99.90;;;;;;5096870;28;20262;-79
2023/12/05 02:04:53;;;;;;;14.30;7.80;;;1.70;99.90;;;;;;5054848;28;20073;-80
2023/12/05 02:07:19;;;;;;;14.85;8.38;;;;;;;;;;5084086;28;20055;-80
2023/12/05 02:09:46;;;;;;;13.77;7.82;;;0.30;99.90;;;;;;5068692;28;20024;-79
2023/12/05 02:12:11;;;;;;;14.60;8.70;;;0.30;99.90;;;;;;5071760;28;20027;-80
2023/12/05 02:14:37;;;;;;;15.35;8.40;;;0.30;99.90;;;;;;5067841;28;20131;-80
2023/12/05 02:17:14;;;;;;;14.20;8.30;;;0.30;99.90;;;;;;5068965;28;20065;-80
2023/12/05 02:19:58;;;;;;;14.27;7.78;;;0.30;99.90;;;;;;5077761;28;20028;-79
2023/12/05 02:22:56;;;;;;;13.90;7.55;;;2.10;99.90;;;;;;5086682;28;20288;-80
2023/12/05 02:25:38;;;;;;;15.48;7.90;;;0.30;99.90;;;;;;5071460;28;20064;-80
2023/12/05 02:28:04;;;;;;;15.85;8.10;;;0.30;99.90;;;;;;5086809;28;20311;-80
2023/12/05 02:30:30;;;;;;;14.57;8.80;;;0.90;99.90;;;;;;5071318;28;20039;-80
2023/12/05 02:32:56;;;;;;;15.27;8.30;;;1.60;99.90;;;;;;5098431;28;20181;-80
2023/12/05 02:35:22;;;;;;;15.00;8.40;;;0.30;99.90;;;;;;5079702;28;20024;-80
2023/12/05 02:38:18;;;;;;;14.98;8.40;;;1.70;99.90;;;;;;5070228;28;20028;-80
2023/12/05 02:41:01;;;;;;;14.68;8.15;;;0.30;99.90;;;;;;5069499;28;20031;-80
2023/12/05 02:43:37;;;;;;;17.08;9.07;;;0.30;99.90;;;;;;5071116;28;20394;-80
2023/12/05 02:46:07;;;;;;;15.23;8.43;;;1.00;99.90;;;;;;5083004;28;20150;-80
2023/12/05 02:48:34;;;;;;;14.52;8.80;;;0.30;99.90;;;;;;5109862;28;20030;-80
2023/12/05 02:51:00;;;;;;;14.40;7.90;;;0.30;99.90;;;;;;5102702;28;20095;-80
2023/12/05 02:53:26;;;;;;;14.65;8.48;;;0.30;99.90;;;;;;5071467;28;20016;-80
2023/12/05 02:55:52;;;;;;;15.38;8.77;;;0.30;99.90;;;;;;5091323;28;20020;-79
2023/12/05 02:58:17;;;;;;;14.98;8.20;;;0.30;99.90;;;;;;5070687;28;20032;-80
2023/12/05 03:00:43;;;;;;;16.83;9.35;;;2.30;99.90;;;;;;5071795;28;20240;-80
2023/12/05 03:03:09;;;;;;;15.25;8.75;;;0.50;99.90;;;;;;5053752;28;20024;-80
2023/12/05 03:05:34;;;;;;;16.38;9.15;;;0.50;99.90;;;;;;5080054;28;20055;-80
2023/12/05 03:08:00;;;;;;;14.57;8.48;;;1.30;99.90;;;;;;5044394;28;20227;-80
2023/12/05 03:10:26;;;;;;;14.95;8.60;;;0.20;99.90;;;;;;5074621;28;20020;-79
2023/12/05 03:12:52;;;;;;;13.90;8.20;;;1.40;99.90;;;;;;5044140;28;20022;-80
2023/12/05 03:15:17;;;;;;;14.75;8.43;;;0.80;99.90;;;;;;5053193;28;20073;-80
2023/12/05 03:17:43;;;;;;;16.48;9.32;;;1.10;99.90;;;;;;5084585;28;20140;-80
2023/12/05 03:20:09;;;;;;;15.73;9.35;;;0.30;99.90;;;;;;5060740;28;20035;-80
2023/12/05 03:22:35;;;;;;;15.60;9.40;;;0.20;99.90;;;;;;5041084;28;20026;-80
2023/12/05 03:25:01;;;;;;;15.52;9.10;;;2.30;99.90;;;;;;5070146;28;20012;-80
2023/12/05 03:27:26;;;;;;;15.48;8.85;;;1.30;99.90;;;;;;5067221;28;20345;-80
2023/12/05 03:29:52;;;;;;;16.70;9.32;;;0.20;99.90;;;;;;5095410;28;20019;-80
2023/12/05 03:32:18;;;;;;;16.45;9.40;;;0.20;99.90;;;;;;5044188;28;20020;-80
2023/12/05 03:34:46;;;;;;;15.95;9.93;;;1.70;99.90;;;;;;5053611;28;20337;-80
2023/12/05 03:37:12;;;;;;;15.57;9.35;;;-0.40;99.90;;;;;;5073338;28;20034;-80
2023/12/05 03:39:37;;;;;;;17.63;9.98;;;1.90;99.90;;;;;;5063066;28;20039;-80
2023/12/05 03:42:03;;;;;;;16.85;9.48;;;0.20;99.90;;;;;;5056413;28;20075;-80
2023/12/05 03:44:29;;;;;;;15.98;9.38;;;0.20;99.90;;;;;;5060916;28;20258;-80
2023/12/05 03:46:54;;;;;;;15.57;9.60;;;1.90;99.90;;;;;;5034470;28;20041;-80
2023/12/05 03:49:20;;;;;;;16.30;10.38;;;1.70;99.90;;;;;;5053273;28;20019;-80
2023/12/05 03:51:46;;;;;;;15.68;9.57;;;0.20;99.90;;;;;;5052852;28;20281;-80
2023/12/05 03:54:12;;;;;;;16.13;9.48;;;0.90;99.90;;;;;;5058203;28;20032;-80
2023/12/05 03:56:38;;;;;;;15.77;8.63;;;0.20;99.90;;;;;;5067917;28;20034;-80
2023/12/05 03:59:03;;;;;;;15.85;9.27;;;0.90;99.90;;;;;;5052663;28;20326;-80
2023/12/05 04:01:29;;;;;;;15.68;9.35;;;2.20;99.90;;;;;;5052650;28;20089;-80
2023/12/05 04:03:55;;;;;;;16.25;9.75;;;1.00;99.90;;;;;;5060721;28;20062;-80
2023/12/05 04:06:24;;;;;;;16.52;9.88;;;1.30;99.90;;;;;;5051926;28;20012;-80
2023/12/05 04:08:50;;;;;;;16.52;10.35;;;0.20;99.90;;;;;;5087755;28;20016;-80
2023/12/05 04:11:16;;;;;;;15.68;8.77;;;0.20;99.90;;;;;;5091934;28;20023;-80
2023/12/05 04:13:42;;;;;;;15.88;9.52;;;2.30;99.90;;;;;;5071570;28;20026;-80
2023/12/05 04:16:09;;;;;;;19.10;10.35;;;1.40;99.90;;;;;;5078176;28;20225;-80
2023/12/05 04:18:35;;;;;;;16.48;9.70;;;0.20;99.90;;;;;;5051827;28;20368;-80
2023/12/05 04:21:01;;;;;;;17.00;9.57;;;1.60;99.90;;;;;;5044856;28;20039;-80
2023/12/05 04:23:26;;;;;;;16.35;9.85;;;1.60;99.90;;;;;;5035849;28;20020;-80
2023/12/05 04:25:52;;;;;;;16.23;10.10;;;2.00;99.90;;;;;;5056818;28;20321;-80
2023/12/05 04:28:18;;;;;;;16.35;9.68;;;2.30;99.90;;;;;;5089315;28;20039;-80
2023/12/05 04:30:44;;;;;;;16.83;10.07;;;1.30;99.90;;;;;;5068052;28;20020;-80
2023/12/05 04:33:10;;;;;;;16.33;9.55;;;0.20;99.90;;;;;;5056252;28;20087;-80
2023/12/05 04:35:36;;;;;;;16.48;10.02;;;0.20;99.90;;;;;;5068881;28;20020;-80
2023/12/05 04:38:01;;;;;;;15.65;9.10;;;0.20;99.90;;;;;;5052506;28;20266;-80
2023/12/05 04:40:27;;;;;;;16.73;9.50;;;2.00;99.90;;;;;;5069964;28;20086;-80
2023/12/05 04:42:53;;;;;;;16.27;9.60;;;0.20;99.90;;;;;;5084319;28;20270;-80
2023/12/05 04:45:18;;;;;;;16.35;9.10;;;0.70;99.90;;;;;;5089776;28;20273;-80
2023/12/05 04:47:45;;;;;;;18.02;10.52;;;1.60;99.90;;;;;;5052953;28;20023;-80
2023/12/05 04:50:11;;;;;;;20.35;9.50;;;0.20;99.90;;;;;;5052284;28;20020;-80
2023/12/05 04:52:37;;;;;;;16.33;9.68;;;;;;;;;;5050861;28;20073;-80
2023/12/05 04:55:03;;;;;;;17.80;9.85;;;0.20;99.90;;;;;;5071501;28;20174;-80
2023/12/05 04:57:29;;;;;;;16.48;9.88;;;0.30;99.90;;;;;;5039202;28;20027;-80
2023/12/05 04:59:55;;;;;;;16.80;9.55;;;0.20;99.90;;;;;;5050670;28;20083;-80
2023/12/05 05:02:20;;;;;;;17.05;9.52;;;1.40;99.90;;;;;;5085016;28;20061;-80
2023/12/05 05:04:46;;;;;;;15.50;8.93;;;2.30;99.90;;;;;;5049746;28;20039;-80
2023/12/05 05:07:12;;;;;;;16.90;9.88;;;0.20;99.90;;;;;;5052831;28;20031;-80
2023/12/05 05:09:40;;;;;;;16.85;9.82;;;1.30;99.90;;;;;;5052068;28;20097;-80
2023/12/05 05:12:10;;;;;;;15.90;9.45;;;0.20;99.90;;;;;;5068719;28;20133;-80
2023/12/05 05:14:36;;;;;;;17.10;10.13;;;0.20;99.90;;;;;;5035189;28;20157;-80
2023/12/05 05:17:07;;;;;;;16.70;9.45;;;0.20;99.90;;;;;;5051129;28;20052;-80
2023/12/05 05:19:33;;;;;;;15.68;9.18;;;0.20;99.90;;;;;;5080333;28;20215;-80
2023/12/05 05:21:59;;;;;;;15.65;8.93;;;1.80;99.90;;;;;;5058413;28;20083;-80
2023/12/05 05:24:25;;;;;;;14.82;8.32;;;1.10;99.90;;;;;;5106977;28;20219;-80
2023/12/05 05:26:51;;;;;;;15.18;8.77;;;0.20;99.90;;;;;;5063491;28;20040;-80
2023/12/05 05:29:17;;;;;;;17.00;9.40;;;1.90;99.90;;;;;;5069344;28;20280;-80
2023/12/05 05:31:42;;;;;;;16.23;9.73;;;1.90;99.90;;;;;;5053877;28;20332;-79
2023/12/05 05:34:08;;;;;;;17.35;10.00;;;1.80;99.90;;;;;;5086501;28;20042;-80
2023/12/05 05:36:34;;;;;;;16.10;9.15;;;0.20;99.90;;;;;;5056211;28;20035;-80
2023/12/05 05:39:00;;;;;;;16.40;9.63;;;0.90;99.90;;;;;;5072099;28;20025;-80
2023/12/05 05:41:26;;;;;;;15.98;8.65;;;1.70;99.90;;;;;;5042102;28;20019;-80
2023/12/05 05:43:52;;;;;;;16.75;9.82;;;0.20;99.90;;;;;;5072536;28;20015;-80
2023/12/05 05:46:18;;;;;;;16.15;9.48;;;0.10;99.90;;;;;;5076151;28;20031;-80
2023/12/05 05:48:44;;;;;;;17.80;10.27;;;1.90;99.90;;;;;;5080968;28;20028;-80
2023/12/05 05:51:10;;;;;;;15.60;9.75;;;1.70;99.90;;;;;;5074351;28;20024;-80
2023/12/05 05:53:36;;;;;;;17.40;9.82;;;0.20;99.90;;;;;;5037417;28;20035;-80
2023/12/05 05:56:02;;;;;;;17.65;9.77;;;0.20;99.90;;;;;;5056172;28;20107;-80
2023/12/05 05:58:28;;;;;;;17.90;10.40;;;0.10;99.90;;;;;;5069812;28;20330;-80
2023/12/05 06:00:54;;;;;;;16.90;9.43;;;2.30;99.90;;;;;;5071126;28;20254;-79
2023/12/05 06:03:19;;;;;;;17.05;9.55;;;1.90;99.90;;;;;;5067536;28;20029;-80
2023/12/05 06:05:45;;;;;;;17.20;9.90;;;0.10;99.90;;;;;;5053596;28;20031;-80
2023/12/05 06:08:11;;;;;;;17.80;9.48;;;1.80;99.90;;;;;;5052868;28;20031;-80
2023/12/05 06:10:37;;;;;;;16.60;10.07;;;0.20;99.90;;;;;;5053109;28;20011;-79
2023/12/05 06:13:02;;;;;;;17.60;10.93;;;1.60;99.90;;;;;;5070947;28;20225;-79
2023/12/05 06:15:28;;;;;;;16.67;9.40;;;0.20;99.90;;;;;;5069262;28;20024;-79
2023/12/05 06:17:56;;;;;;;16.48;9.45;;;0.20;99.90;;;;;;5052221;28;20205;-80
2023/12/05 06:20:22;;;;;;;17.75;10.40;;;0.50;99.90;;;;;;5068760;28;20066;-80
2023/12/05 06:22:48;;;;;;;18.88;11.23;;;2.00;99.90;;;;;;5051010;28;20055;-80
2023/12/05 06:25:14;;;;;;;17.02;10.15;;;0.10;99.90;;;;;;5048900;28;20065;-80
2023/12/05 06:27:39;;;;;;;18.35;10.20;;;0.20;99.90;;;;;;5038327;28;20032;-80
2023/12/05 06:30:06;;;;;;;17.77;10.68;;;1.20;99.90;;;;;;5064307;28;20020;-79
2023/12/05 06:32:32;;;;;;;18.65;10.32;;;0.20;99.90;;;;;;5067613;28;20044;-79
2023/12/05 06:34:57;;;;;;;17.15;9.80;;;0.60;99.90;;;;;;5054112;28;20090;-79
2023/12/05 06:37:23;;;;;;;18.20;10.23;;;0.20;99.90;;;;;;5054646;28;20087;-80
2023/12/05 06:39:49;;;;;;;17.52;10.27;;;1.50;99.90;;;;;;5065697;28;20027;-79
2023/12/05 06:42:15;;;;;;;16.60;10.05;;;1.60;99.90;;;;;;5068817;28;20020;-80
2023/12/05 06:44:41;;;;;;;17.58;9.63;;;0.20;99.90;;;;;;5065375;28;20053;-80
2023/12/05 06:47:07;;;;;;;17.67;10.30;;;-0.20;99.90;;;;;;5081252;28;20268;-80
2023/12/05 06:49:33;;;;;;;17.48;10.15;;;2.00;99.90;;;;;;5036068;28;20024;-80
2023/12/05 06:52:00;;;;;;;17.33;10.00;;;0.10;99.90;;;;;;5030734;28;20312;-80
2023/12/05 06:54:26;;;;;;;17.65;10.68;;;0.10;99.90;;;;;;5050570;28;20023;-80
2023/12/05 06:56:52;;;;;;;16.40;9.23;;;0.20;99.90;;;;;;5064490;28;20024;-79
2023/12/05 06:59:18;;;;;;;16.75;9.73;;;1.90;99.90;;;;;;5034177;28;20159;-79
2023/12/05 07:01:43;;;;;;;19.63;10.93;;;2.20;99.90;;;;;;5067446;28;20019;-79
2023/12/05 07:04:09;;;;;;;17.75;9.93;;;0.10;99.90;;;;;;5049256;28;20012;-80
2023/12/05 07:06:35;;;;;;;20.25;11.10;;;0.10;99.90;;;;;;5033570;28;20409;-80
2023/12/05 07:09:01;;;;;;;16.88;9.82;;;0.10;99.90;;;;;;5065275;28;20274;-79
2023/12/05 07:11:27;;;;;;;17.90;9.93;;;0.10;99.90;;;;;;5051261;28;20019;-80
2023/12/05 07:13:53;;;;;;;18.58;10.30;;;0.20;99.90;;;;;;5065818;28;20085;-80
2023/12/05 07:16:19;;;;;;;18.33;10.65;;;0.20;99.90;;;;;;5068623;28;20030;-80
2023/12/05 07:18:45;;;;;;;16.83;9.73;;;0.10;99.90;;;;;;5089065;28;20056;-80
2023/12/05 07:21:11;;;;;;;16.95;9.82;;;0.80;99.90;;;;;;5068652;28;20015;-80
2023/12/05 07:23:37;;;;;;;19.00;10.70;;;2.10;99.90;;;;;;5066487;28;20265;-80
2023/12/05 07:26:03;;;;;;;19.42;10.85;;;2.30;99.90;;;;;;5050486;28;20024;-80
2023/12/05 07:28:29;;;;;;;18.13;10.55;;;0.10;99.90;;;;;;5085676;28;20039;-80
2023/12/05 07:30:55;;;;;;;18.38;10.50;;;1.50;99.90;;;;;;5064363;28;20032;-80
2023/12/05 07:33:21;;;;;;;17.25;10.02;;;0.80;99.90;;;;;;5070935;28;20042;-80
2023/12/05 07:35:47;;;;;;;16.50;9.63;;;0.60;99.90;;;;;;5067171;28;20036;-80
2023/12/05 07:38:12;;;;;;;17.13;9.88;;;0.20;99.90;;;;;;5065530;28;20168;-80
2023/12/05 07:40:38;;;;;;;19.13;11.27;;;0.10;99.90;;;;;;5049527;28;20257;-80
2023/12/05 07:43:04;;;;;;;16.88;10.13;;;0.20;99.90;;;;;;5033282;28;20023;-80
2023/12/05 07:45:30;;;;;;;17.77;10.55;;;0.20;99.90;;;;;;5066962;28;20039;-81
2023/12/05 07:47:56;;;;;;;17.95;9.77;;;0.20;99.90;;;;;;5067036;28;20086;-81
2023/12/05 07:50:22;;;;;;;17.63;10.07;;;0.70;99.90;;;;;;5050220;28;20028;-81
2023/12/05 07:52:49;;;;;;;18.42;10.35;;;1.10;99.90;;;;;;5048813;28;20030;-81
2023/12/05 07:55:17;;;;;;;18.65;11.07;;;0.20;99.90;;;;;;5068097;28;20181;-81
2023/12/05 07:57:42;;;;;;;18.77;11.05;;;0.20;99.90;;;;;;5065120;28;20048;-81
2023/12/05 08:00:14;;;;;;;18.23;10.65;;;0.20;99.90;;;;;;5082631;28;20055;-81
2023/12/05 08:02:40;;;;;;;17.80;10.23;;;0.20;99.90;;;;;;5067062;28;20210;-81
2023/12/05 08:05:06;;;;;;;17.75;9.90;;;0.20;99.90;;;;;;5049220;28;20028;-81
2023/12/05 08:07:32;;;;;;;18.63;10.65;;;0.20;99.90;;;;;;5081800;28;20020;-81
2023/12/05 08:09:57;;;;;;;16.88;9.73;;;0.20;99.90;;;;;;5068180;28;20398;-81
2023/12/05 08:12:23;;;;;;;17.17;10.43;;;0.20;99.90;;;;;;5053909;28;20074;-81
2023/12/05 08:14:49;;;;;;;16.73;9.68;;;2.30;99.90;;;;;;5064515;28;20036;-81
2023/12/05 08:17:14;;;;;;;17.67;10.55;;;0.20;99.90;;;;;;5051598;28;20104;-81
2023/12/05 08:19:40;;;;;;;16.73;10.15;;;2.00;99.90;;;;;;5063397;28;20111;-81
2023/12/05 08:22:06;;;;;;;18.23;10.45;;;1.80;99.90;;;;;;5047529;28;20042;-81
2023/12/05 08:24:31;;;;;;;18.20;10.35;;;0.30;99.90;;;;;;5032106;28;20039;-81
2023/12/05 08:26:58;;;;;;;17.75;10.40;;;0.30;99.90;;;;;;5047602;28;20182;-81
2023/12/05 08:29:24;;;;;;;19.23;10.60;;;1.90;99.90;;;;;;5032224;28;20043;-81
2023/12/05 08:31:50;;;;;;;16.23;9.85;;;1.70;99.90;;;;;;5051370;28;20311;-81
2023/12/05 08:34:15;;;;;;;18.38;10.35;;;0.70;99.90;;;;;;5044928;28;20053;-81
2023/12/05 08:36:44;;;;;;;17.85;10.18;;;0.30;99.90;;;;;;5064289;28;20023;-81
2023/12/05 08:39:11;;;;;;;18.27;10.43;;;1.20;99.90;;;;;;5064062;28;20016;-81
2023/12/05 08:41:37;;;;;;;15.23;8.30;;;0.30;99.90;;;;;;5048072;28;20032;-81
2023/12/05 08:44:03;;;;;;;17.10;10.82;;;1.40;99.90;;;;;;5065134;28;20018;-81
2023/12/05 08:46:29;;;;;;;17.02;9.88;;;0.30;99.90;;;;;;5080335;28;20039;-81
2023/12/05 08:48:55;;;;;;;18.10;10.10;;;1.60;99.90;;;;;;5047735;28;20019;-81
2023/12/05 08:51:20;;;;;;;17.90;10.30;;;0.50;99.90;;;;;;5049552;28;20020;-81
2023/12/05 08:53:46;;;;;;;17.25;10.35;;;1.70;99.90;;;;;;5050493;28;20085;-80
2023/12/05 08:56:12;;;;;;;19.38;10.85;;;0.40;99.90;;;;;;5049535;28;20085;-81
2023/12/05 08:58:38;;;;;;;16.88;10.02;;;0.30;99.90;;;;;;5069260;28;20016;-81
2023/12/05 09:01:04;;;;;;;18.95;10.65;;;0.30;99.90;;;;;;5050793;28;20012;-81
2023/12/05 09:03:30;;;;;;;17.25;9.88;;;0.40;99.90;;;;;;5064480;28;20237;-81
2023/12/05 09:05:56;;;;;;;18.23;10.55;;;1.60;99.90;;;;;;5062964;28;20016;-81
2023/12/05 09:08:22;;;;;;;16.73;9.93;;;1.00;99.90;;;;;;5083853;28;20011;-80
2023/12/05 09:10:48;;;;;;;18.23;10.27;;;1.90;99.90;;;;;;5063501;28;20330;-81
2023/12/05 09:13:17;;;;;;;18.30;10.48;;;0.40;99.90;;;;;;5054511;28;20016;-81
2023/12/05 09:15:43;;;;;;;17.95;10.10;;;2.50;99.90;;;;;;5051001;28;20028;-81
2023/12/05 09:18:10;;;;;;;17.60;9.40;;;2.20;99.90;;;;;;5054913;28;20230;-81
2023/12/05 09:20:37;;;;;;;18.25;10.85;;;0.40;99.90;;;;;;5052013;28;20029;-81
2023/12/05 09:23:03;;;;;;;18.95;10.55;;;0.40;99.90;;;;;;5053928;28;20028;-81
2023/12/05 09:25:28;;;;;;;18.27;10.68;;;1.60;99.90;;;;;;5050357;28;20071;-80
2023/12/05 09:27:54;;;;;;;16.23;9.73;;;0.40;99.90;;;;;;5078591;28;20052;-81
2023/12/05 09:30:20;;;;;;;16.98;9.98;;;1.00;99.90;;;;;;5049908;28;20031;-81
2023/12/05 09:32:45;;;;;;;18.80;11.27;;;0.40;99.90;;;;;;5054470;28;20016;-81
2023/12/05 09:35:11;;;;;;;17.75;10.05;;;2.00;99.90;;;;;;5081092;28;20028;-81
2023/12/05 09:37:37;;;;;;;19.02;10.77;;;1.20;99.90;;;;;;5048950;28;20024;-81
2023/12/05 09:40:03;;;;;;;18.02;10.88;;;0.50;99.90;;;;;;5027405;28;20159;-81
2023/12/05 09:42:30;;;;;;;17.17;11.02;;;0.50;99.90;;;;;;5057718;28;20023;-81
2023/12/05 09:44:59;;;;;;;18.50;10.65;;;1.90;99.90;;;;;;5083215;28;20016;-81
2023/12/05 09:47:27;;;;;;;17.63;10.10;;;1.90;99.90;;;;;;5066631;28;20028;-81
2023/12/05 09:49:55;;;;;;;17.33;10.90;;;1.60;99.90;;;;;;5073360;28;20058;-81
2023/12/05 09:52:22;;;;;;;18.77;10.98;;;2.20;99.90;;;;;;5077299;28;20053;-81
2023/12/05 09:54:49;;;;;;;18.48;10.85;;;0.60;99.90;;;;;;5098796;28;20055;-79
2023/12/05 09:57:14;;;;;;;19.33;11.45;;;0.70;99.90;;;;;;5070274;28;20024;-79
2023/12/05 09:59:41;;;;;;;17.85;10.60;;;0.70;99.90;;;;;;5089115;28;20018;-79
2023/12/05 10:02:08;;;;;;;18.48;11.52;;;1.80;99.90;;;;;;5088070;28;20020;-79
2023/12/05 10:04:44;;;;;;;18.45;10.73;;;2.00;99.90;;;;;;5088682;28;20307;-79
2023/12/05 10:07:14;;;;;;;19.02;11.30;;;0.70;99.90;;;;;;5072564;28;20147;-79
2023/12/05 10:09:41;;;;;;;19.67;11.20;;;2.00;99.90;;;;;;5070628;28;20031;-79
2023/12/05 10:12:09;;;;;;;19.02;11.63;;;1.70;99.90;;;;;;5075534;28;20284;-79
2023/12/05 10:14:36;;;;;;;20.42;11.80;;;0.70;99.90;;;;;;5070750;28;20012;-79
2023/12/05 10:17:03;;;;;;;17.40;10.77;;;1.50;99.90;;;;;;5051955;28;20261;-79
2023/12/05 10:19:32;;;;;;;19.17;10.82;;;0.80;99.90;;;;;;5097638;28;20268;-79
2023/12/05 10:21:59;;;;;;;19.15;11.25;;;0.80;99.90;;;;;;5119955;28;20031;-79
2023/12/05 10:24:47;;;;;;;20.45;11.77;;;0.80;99.90;;;;;;5085067;28;20099;-80
2023/12/05 10:27:12;;;;;;;19.77;11.80;;;0.80;99.90;;;;;;5083750;28;20070;-79
2023/12/05 10:29:42;;;;;;;18.70;11.13;;;0.80;99.90;;;;;;5069868;28;20027;-79
2023/12/05 10:32:12;;;;;;;18.83;10.88;;;0.80;99.90;;;;;;5084620;28;20392;-79
2023/12/05 10:34:48;;;;;;;19.23;11.55;;;2.20;99.90;;;;;;5086050;28;20181;-79
2023/12/05 10:37:14;;;;;;;19.80;11.82;;;0.80;99.90;;;;;;5049502;28;20012;-79
2023/12/05 10:39:39;;;;;;;19.83;11.02;;;0.90;99.90;;;;;;5066982;28;20081;-79
2023/12/05 10:42:07;;;;;;;18.60;11.13;;;1.10;99.90;;;;;;5073563;28;20119;-79
2023/12/05 10:44:40;;;;;;;21.25;11.90;;;1.10;99.90;;;;;;5050247;28;20032;-79
2023/12/05 10:47:06;;;;;;;18.35;11.25;;;0.80;99.90;;;;;;5067671;28;20261;-79
2023/12/05 10:49:34;;;;;;;18.90;11.00;;;-0.50;99.90;;;;;;5083168;28;20016;-79
2023/12/05 10:52:03;;;;;;;18.15;10.48;;;0.80;99.90;;;;;;5103378;28;20028;-79
2023/12/05 10:54:29;;;;;;;21.00;12.30;;;0.80;99.90;;;;;;5082815;28;20027;-79
2023/12/05 10:56:59;;;;;;;21.05;11.52;;;1.30;99.90;;;;;;5067334;28;20135;-79
2023/12/05 10:59:27;;;;;;;20.15;12.02;;;0.80;99.90;;;;;;5054627;28;20269;-79
2023/12/05 11:01:56;;;;;;;20.45;11.52;;;0.80;99.90;;;;;;5068381;28;20023;-79
2023/12/05 11:04:25;;;;;;;19.17;11.30;;;1.10;99.90;;;;;;5069169;28;20021;-79
2023/12/05 11:06:52;;;;;;;23.45;11.40;;;1.40;99.90;;;;;;5081711;28;20032;-79
2023/12/05 11:09:18;;;;;;;19.90;11.65;;;0.80;99.90;;;;;;5084543;28;20048;-79
2023/12/05 11:11:47;;;;;;;21.83;12.73;;;1.90;99.90;;;;;;5084442;28;20032;-78
2023/12/05 11:14:15;;;;;;;20.30;12.13;;;0.80;99.90;;;;;;5084953;28;20094;-78
2023/12/05 11:16:49;;;;;;;22.10;12.40;;;1.10;99.90;;;;;;5067094;28;20137;-79
2023/12/05 11:19:39;;;;;;;20.15;12.00;;;0.80;99.90;;;;;;5068375;28;20086;-79
2023/12/05 11:22:47;;;;;;;21.42;11.38;;;0.90;99.90;;;;;;5065333;28;20365;-79
2023/12/05 11:25:29;;;;;;;19.80;12.38;;;0.80;99.90;;;;;;5082774;28;20031;-79
2023/12/05 11:28:15;;;;;;;20.50;12.85;;;0.80;99.90;;;;;;5081364;28;20028;-79
2023/12/05 11:31:10;;;;;;;21.20;12.25;;;1.50;99.90;;;;;;5080914;28;20020;-79
2023/12/05 11:34:14;;;;;;;20.33;11.70;;;0.80;99.90;;;;;;5098200;28;20099;-79
2023/12/05 11:36:54;;;;;;;22.58;12.98;;;1.70;99.90;;;;;;5031546;28;20185;-79
2023/12/05 11:39:21;;;;;;;20.92;11.52;;;0.80;99.90;;;;;;5065231;28;20020;-79
2023/12/05 11:42:14;;;;;;;20.33;12.68;;;1.80;99.90;;;;;;5082453;28;20348;-79
2023/12/05 11:44:41;;;;;;;23.30;12.77;;;0.80;99.90;;;;;;5048941;28;20059;-79
2023/12/05 11:47:24;;;;;;;21.15;12.20;;;0.80;99.90;;;;;;5080865;28;20027;-80
2023/12/05 11:49:53;;;;;;;21.48;12.85;;;0.80;99.90;;;;;;5065710;28;20046;-79
2023/12/05 11:52:20;;;;;;;19.95;11.38;;;2.70;99.90;;;;;;5066698;28;20051;-79
2023/12/05 11:54:52;;;;;;;22.17;12.95;;;0.80;99.90;;;;;;5082898;28;20133;-79
2023/12/05 11:57:20;;;;;;;24.38;13.07;;;0.80;99.90;;;;;;5082168;28;20087;-79
2023/12/05 11:59:47;;;;;;;21.70;13.02;;;0.80;99.90;;;;;;5112192;28;20304;-79
2023/12/05 12:02:30;;;;;;;22.90;13.20;;;0.90;99.90;;;;;;5062347;28;20311;-79
2023/12/05 12:05:07;;;;;;;21.55;13.48;;;0.50;99.90;;;;;;5079719;28;20023;-79
2023/12/05 12:07:47;;;;;;;21.33;13.00;;;0.90;99.90;;;;;;5081341;28;20154;-79
2023/12/05 12:10:16;;;;;;;22.35;13.35;;;0.80;99.90;;;;;;5064032;28;20113;-79
2023/12/05 12:12:44;;;;;;;23.77;13.88;;;0.80;99.90;;;;;;5060620;28;20088;-79
2023/12/05 12:15:11;;;;;;;24.10;13.95;;;0.80;99.90;;;;;;5062798;28;20071;-79
2023/12/05 12:17:44;;;;;;;23.40;13.88;;;0.80;99.90;;;;;;5072919;28;20040;-79
2023/12/05 12:20:14;;;;;;;22.77;13.15;;;0.80;99.90;;;;;;5077650;28;20032;-79
2023/12/05 12:22:44;;;;;;;19.50;12.15;;;0.80;99.90;;;;;;5084871;28;20035;-79
2023/12/05 12:25:17;;;;;;;22.80;13.15;;;0.70;99.90;;;;;;5059760;28;20029;-79
2023/12/05 12:27:44;;;;;;;21.85;12.90;;;1.10;99.90;;;;;;5058676;28;20040;-79
2023/12/05 12:30:16;;;;;;;24.50;14.02;;;0.70;99.90;;;;;;5062132;28;20220;-79
2023/12/05 12:32:56;;;;;;;21.67;12.48;;;0.80;99.90;;;;;;5060612;28;20020;-79
2023/12/05 12:35:23;;;;;;;21.77;12.75;;;0.80;99.90;;;;;;5077420;28;20030;-79
2023/12/05 12:37:52;;;;;;;23.70;13.05;;;0.70;99.90;;;;;;5058191;28;20031;-79
2023/12/05 12:40:19;;;;;;;23.63;14.23;;;0.80;99.90;;;;;;5062486;28;20056;-79
2023/12/05 12:42:47;;;;;;;21.83;13.10;;;2.50;99.90;;;;;;5077988;28;20195;-79
2023/12/05 12:45:13;;;;;;;25.02;14.02;;;0.80;99.90;;;;;;5060507;28;20032;-79